sensor_id;sensor_type;location;lat;lon;timestamp;temperature;humidity
13433;DHT22;6789;47.678;9.158;2022-07-04T00:04:01;20.90;99.90
13433;DHT22;6789;47.678;9.158;2022-07-04T00:09:20;21.00;99.90
13433;DHT22;6789;47.678;9.158;2022-07-04T00:14:59;21.10;99.90
13433;DHT22;6789;47.678;9.158;2022-07-04T00:38:25;20.80;99.90
13433;DHT22;6789;47.678;9.158;2022-07-04T00:43:31;20.70;99.90
13433;DHT22;6789;47.678;9.158;2022-07-04T00:48:41;20.90;99.90
13433;DHT22;6789;47.678;9.158;2022-07-04T00:53:48;20.80;99.90
13433;DHT22;6789;47.678;9.158;2022-07-04T00:59:16;20.50;99.90
13433;DHT22;6789;47.678;9.158;2022-07-04T01:11:01;20.40;99.90
13433;DHT22;6789;47.678;9.158;2022-07-04T01:16:57;20.40;99.90
13433;DHT22;6789;47.678;9.158;2022-07-04T01:22:49;20.40;99.90
13433;DHT22;6789;47.678;9.158;2022-07-04T01:27:41;20.30;99.90
13433;DHT22;6789;47.678;9.158;2022-07-04T01:32:50;20.30;99.90
13433;DHT22;6789;47.678;9.158;2022-07-04T01:37:42;20.30;99.90
13433;DHT22;6789;47.678;9.158;2022-07-04T01:42:34;20.40;99.90
13433;DHT22;6789;47.678;9.158;2022-07-04T01:47:26;20.50;99.90
13433;DHT22;6789;47.678;9.158;2022-07-04T01:52:34;20.40;99.90
13433;DHT22;6789;47.678;9.158;2022-07-04T01:58:21;20.20;99.90
13433;DHT22;6789;47.678;9.158;2022-07-04T02:03:27;20.20;99.90
13433;DHT22;6789;47.678;9.158;2022-07-04T02:15:58;20.00;99.90
13433;DHT22;6789;47.678;9.158;2022-07-04T02:21:30;19.90;99.90
13433;DHT22;6789;47.678;9.158;2022-07-04T02:32:26;19.80;99.90
13433;DHT22;6789;47.678;9.158;2022-07-04T02:37:24;19.80;99.90
13433;DHT22;6789;47.678;9.158;2022-07-04T02:42:36;19.70;99.90
13433;DHT22;6789;47.678;9.158;2022-07-04T03:58:39;19.30;99.90
13433;DHT22;6789;47.678;9.158;2022-07-04T05:24:31;18.80;99.90
13433;DHT22;6789;47.678;9.158;2022-07-04T05:30:17;19.00;99.90
13433;DHT22;6789;47.678;9.158;2022-07-04T05:35:52;19.10;99.90
13433;DHT22;6789;47.678;9.158;2022-07-04T05:41:29;19.20;99.90
13433;DHT22;6789;47.678;9.158;2022-07-04T05:47:06;19.10;99.90
13433;DHT22;6789;47.678;9.158;2022-07-04T05:52:22;19.10;99.90
13433;DHT22;6789;47.678;9.158;2022-07-04T05:58:01;19.10;99.90
13433;DHT22;6789;47.678;9.158;2022-07-04T06:03:34;19.10;99.90
13433;DHT22;6789;47.678;9.158;2022-07-04T06:10:15;19.10;99.90
13433;DHT22;6789;47.678;9.158;2022-07-04T06:16:39;19.20;99.90
13433;DHT22;6789;47.678;9.158;2022-07-04T06:22:43;19.40;99.90
13433;DHT22;6789;47.678;9.158;2022-07-04T06:28:59;19.60;99.90
13433;DHT22;6789;47.678;9.158;2022-07-04T06:39:14;19.80;99.90
13433;DHT22;6789;47.678;9.158;2022-07-04T06:44:22;20.00;99.90
13433;DHT22;6789;47.678;9.158;2022-07-04T06:49:34;20.30;99.90
13433;DHT22;6789;47.678;9.158;2022-07-04T06:54:51;20.20;99.90
13433;DHT22;6789;47.678;9.158;2022-07-04T07:00:32;20.20;99.90
13433;DHT22;6789;47.678;9.158;2022-07-04T07:06:10;20.40;99.90
13433;DHT22;6789;47.678;9.158;2022-07-04T07:11:17;20.30;99.90
13433;DHT22;6789;47.678;9.158;2022-07-04T07:16:53;20.20;99.90
13433;DHT22;6789;47.678;9.158;2022-07-04T07:22:54;19.90;99.90
13433;DHT22;6789;47.678;9.158;2022-07-04T07:28:28;20.30;99.90
13433;DHT22;6789;47.678;9.158;2022-07-04T07:33:56;20.60;99.90
13433;DHT22;6789;47.678;9.158;2022-07-04T07:39:05;20.70;99.90
13433;DHT22;6789;47.678;9.158;2022-07-04T07:44:18;20.80;99.90
13433;DHT22;6789;47.678;9.158;2022-07-04T07:49:45;21.50;99.90
13433;DHT22;6789;47.678;9.158;2022-07-04T07:55:43;21.80;99.90
13433;DHT22;6789;47.678;9.158;2022-07-04T08:01:32;22.40;99.90
13433;DHT22;6789;47.678;9.158;2022-07-04T08:07:07;23.10;99.90
13433;DHT22;6789;47.678;9.158;2022-07-04T08:12:16;23.80;99.90
13433;DHT22;6789;47.678;9.158;2022-07-04T08:17:43;24.50;99.90
13433;DHT22;6789;47.678;9.158;2022-07-04T08:23:21;24.80;99.90
13433;DHT22;6789;47.678;9.158;2022-07-04T08:28:29;24.90;99.90
13433;DHT22;6789;47.678;9.158;2022-07-04T08:33:43;25.50;99.90
13433;DHT22;6789;47.678;9.158;2022-07-04T08:39:14;25.30;99.90
13433;DHT22;6789;47.678;9.158;2022-07-04T08:45:15;25.80;99.90
13433;DHT22;6789;47.678;9.158;2022-07-04T08:50:26;25.60;99.90
13433;DHT22;6789;47.678;9.158;2022-07-04T08:55:47;25.50;99.90
13433;DHT22;6789;47.678;9.158;2022-07-04T09:01:23;25.30;99.90
13433;DHT22;6789;47.678;9.158;2022-07-04T09:06:51;25.10;99.90
13433;DHT22;6789;47.678;9.158;2022-07-04T09:12:20;24.90;99.90
13433;DHT22;6789;47.678;9.158;2022-07-04T09:17:27;24.90;99.90
13433;DHT22;6789;47.678;9.158;2022-07-04T09:22:38;24.40;99.90
13433;DHT22;6789;47.678;9.158;2022-07-04T09:27:49;23.70;99.90
13433;DHT22;6789;47.678;9.158;2022-07-04T09:33:00;24.10;99.90
13433;DHT22;6789;47.678;9.158;2022-07-04T09:38:22;24.70;99.90
13433;DHT22;6789;47.678;9.158;2022-07-04T09:43:29;24.80;99.90
13433;DHT22;6789;47.678;9.158;2022-07-04T09:48:50;25.20;99.90
13433;DHT22;6789;47.678;9.158;2022-07-04T09:59:31;25.60;99.90
13433;DHT22;6789;47.678;9.158;2022-07-04T10:04:43;25.40;99.90
13433;DHT22;6789;47.678;9.158;2022-07-04T10:15:30;26.20;99.90
13433;DHT22;6789;47.678;9.158;2022-07-04T10:20:38;25.70;99.90
13433;DHT22;6789;47.678;9.158;2022-07-04T10:25:51;25.80;99.90
13433;DHT22;6789;47.678;9.158;2022-07-04T10:30:59;26.30;99.90
13433;DHT22;6789;47.678;9.158;2022-07-04T10:36:19;26.10;99.90
13433;DHT22;6789;47.678;9.158;2022-07-04T10:41:58;27.00;99.90
13433;DHT22;6789;47.678;9.158;2022-07-04T10:47:22;27.30;99.90
13433;DHT22;6789;47.678;9.158;2022-07-04T10:53:18;27.50;99.90
13433;DHT22;6789;47.678;9.158;2022-07-04T10:59:22;26.60;99.90
13433;DHT22;6789;47.678;9.158;2022-07-04T11:05:24;26.10;99.90
13433;DHT22;6789;47.678;9.158;2022-07-04T11:11:23;26.30;99.90
13433;DHT22;6789;47.678;9.158;2022-07-04T11:23:49;27.50;99.90
13433;DHT22;6789;47.678;9.158;2022-07-04T11:29:24;27.40;99.90
13433;DHT22;6789;47.678;9.158;2022-07-04T11:34:33;27.70;99.90
13433;DHT22;6789;47.678;9.158;2022-07-04T11:39:59;28.10;99.90
13433;DHT22;6789;47.678;9.158;2022-07-04T11:45:35;27.60;99.90
13433;DHT22;6789;47.678;9.158;2022-07-04T11:51:02;26.20;99.90
13433;DHT22;6789;47.678;9.158;2022-07-04T12:23:52;25.70;99.90
13433;DHT22;6789;47.678;9.158;2022-07-04T12:36:05;25.60;99.90
13433;DHT22;6789;47.678;9.158;2022-07-04T12:41:11;26.30;99.90
13433;DHT22;6789;47.678;9.158;2022-07-04T12:46:57;27.00;99.90
13433;DHT22;6789;47.678;9.158;2022-07-04T12:52:51;27.90;99.90
13433;DHT22;6789;47.678;9.158;2022-07-04T12:58:18;27.90;99.90
13433;DHT22;6789;47.678;9.158;2022-07-04T13:03:59;27.80;99.90
13433;DHT22;6789;47.678;9.158;2022-07-04T13:09:11;27.60;99.90
13433;DHT22;6789;47.678;9.158;2022-07-04T13:14:47;27.30;99.90
13433;DHT22;6789;47.678;9.158;2022-07-04T13:25:49;27.90;99.90
13433;DHT22;6789;47.678;9.158;2022-07-04T13:30:40;28.40;99.90
13433;DHT22;6789;47.678;9.158;2022-07-04T13:35:32;28.50;99.90
13433;DHT22;6789;47.678;9.158;2022-07-04T13:40:24;28.60;99.90
13433;DHT22;6789;47.678;9.158;2022-07-04T13:45:16;28.40;99.90
13433;DHT22;6789;47.678;9.158;2022-07-04T13:50:09;28.40;99.90
13433;DHT22;6789;47.678;9.158;2022-07-04T13:55:01;28.20;99.90
13433;DHT22;6789;47.678;9.158;2022-07-04T13:59:53;28.30;99.90
13433;DHT22;6789;47.678;9.158;2022-07-04T14:04:45;28.70;99.90
13433;DHT22;6789;47.678;9.158;2022-07-04T14:09:37;29.20;99.90
13433;DHT22;6789;47.678;9.158;2022-07-04T14:14:28;29.30;99.90
13433;DHT22;6789;47.678;9.158;2022-07-04T14:19:20;29.30;99.90
13433;DHT22;6789;47.678;9.158;2022-07-04T14:24:12;29.10;99.90
13433;DHT22;6789;47.678;9.158;2022-07-04T14:29:04;29.00;99.90
13433;DHT22;6789;47.678;9.158;2022-07-04T14:33:56;29.00;99.90
13433;DHT22;6789;47.678;9.158;2022-07-04T14:38:49;29.00;99.90
13433;DHT22;6789;47.678;9.158;2022-07-04T14:43:42;29.00;99.90
13433;DHT22;6789;47.678;9.158;2022-07-04T14:48:36;28.90;99.90
13433;DHT22;6789;47.678;9.158;2022-07-04T15:26:10;25.10;99.90
13433;DHT22;6789;47.678;9.158;2022-07-04T15:31:45;22.30;99.90
13433;DHT22;6789;47.678;9.158;2022-07-04T15:37:04;21.20;99.90
13433;DHT22;6789;47.678;9.158;2022-07-04T15:42:14;21.00;99.90
13433;DHT22;6789;47.678;9.158;2022-07-04T15:47:37;20.60;99.90
13433;DHT22;6789;47.678;9.158;2022-07-04T15:53:16;20.10;99.90
13433;DHT22;6789;47.678;9.158;2022-07-04T15:58:35;20.20;99.90
13433;DHT22;6789;47.678;9.158;2022-07-04T16:04:14;20.30;99.90
13433;DHT22;6789;47.678;9.158;2022-07-04T16:09:47;20.50;99.90
13433;DHT22;6789;47.678;9.158;2022-07-04T16:15:01;20.70;99.90
13433;DHT22;6789;47.678;9.158;2022-07-04T16:20:52;20.80;99.90
13433;DHT22;6789;47.678;9.158;2022-07-04T16:54:08;21.10;99.90
13433;DHT22;6789;47.678;9.158;2022-07-04T17:00:21;21.20;99.90
13433;DHT22;6789;47.678;9.158;2022-07-04T17:12:09;21.20;99.90
13433;DHT22;6789;47.678;9.158;2022-07-04T17:18:07;21.20;99.90
13433;DHT22;6789;47.678;9.158;2022-07-04T18:22:33;21.20;99.90
13433;DHT22;6789;47.678;9.158;2022-07-04T18:28:46;21.20;99.90
13433;DHT22;6789;47.678;9.158;2022-07-04T18:35:08;21.10;99.90
13433;DHT22;6789;47.678;9.158;2022-07-04T18:40:55;21.10;99.90
13433;DHT22;6789;47.678;9.158;2022-07-04T18:46:49;20.70;99.90
13433;DHT22;6789;47.678;9.158;2022-07-04T18:52:56;20.50;99.90
13433;DHT22;6789;47.678;9.158;2022-07-04T18:58:34;20.90;99.90
13433;DHT22;6789;47.678;9.158;2022-07-04T19:04:23;21.90;99.90
13433;DHT22;6789;47.678;9.158;2022-07-04T19:09:40;21.70;99.90
13433;DHT22;6789;47.678;9.158;2022-07-04T19:15:20;21.00;99.90
13433;DHT22;6789;47.678;9.158;2022-07-04T19:21:05;20.70;99.90
13433;DHT22;6789;47.678;9.158;2022-07-04T19:26:29;20.70;99.90
13433;DHT22;6789;47.678;9.158;2022-07-04T19:32:08;20.30;99.90
13433;DHT22;6789;47.678;9.158;2022-07-04T19:37:27;19.90;99.90
13433;DHT22;6789;47.678;9.158;2022-07-04T19:43:08;19.50;99.90
13433;DHT22;6789;47.678;9.158;2022-07-04T19:48:36;19.40;99.90
13433;DHT22;6789;47.678;9.158;2022-07-04T20:06:17;19.30;99.90
13433;DHT22;6789;47.678;9.158;2022-07-04T20:12:41;19.30;99.90
13433;DHT22;6789;47.678;9.158;2022-07-04T20:19:02;19.30;99.90
13433;DHT22;6789;47.678;9.158;2022-07-04T20:25:11;19.20;99.90
13433;DHT22;6789;47.678;9.158;2022-07-04T20:43:47;19.10;99.90
13433;DHT22;6789;47.678;9.158;2022-07-04T20:49:06;18.90;99.90
13433;DHT22;6789;47.678;9.158;2022-07-04T21:01:16;18.90;99.90
13433;DHT22;6789;47.678;9.158;2022-07-04T21:19:11;18.70;99.90
13433;DHT22;6789;47.678;9.158;2022-07-04T21:25:33;18.70;99.90
13433;DHT22;6789;47.678;9.158;2022-07-04T21:31:08;18.80;99.90
13433;DHT22;6789;47.678;9.158;2022-07-04T21:37:06;18.70;99.90
13433;DHT22;6789;47.678;9.158;2022-07-04T21:42:14;18.60;99.90
13433;DHT22;6789;47.678;9.158;2022-07-04T21:47:42;18.60;99.90
13433;DHT22;6789;47.678;9.158;2022-07-04T21:53:02;18.60;99.90
13433;DHT22;6789;47.678;9.158;2022-07-04T21:58:12;18.60;99.90
13433;DHT22;6789;47.678;9.158;2022-07-04T22:03:22;18.50;99.90
13433;DHT22;6789;47.678;9.158;2022-07-04T22:21:17;18.40;99.90
13433;DHT22;6789;47.678;9.158;2022-07-04T22:26:36;18.30;99.90
13433;DHT22;6789;47.678;9.158;2022-07-04T22:32:08;18.20;99.90
13433;DHT22;6789;47.678;9.158;2022-07-04T22:37:46;18.20;99.90
13433;DHT22;6789;47.678;9.158;2022-07-04T22:43:37;18.10;99.90
13433;DHT22;6789;47.678;9.158;2022-07-04T22:48:47;18.20;99.90
13433;DHT22;6789;47.678;9.158;2022-07-04T22:54:16;18.00;99.90
13433;DHT22;6789;47.678;9.158;2022-07-04T22:59:52;18.00;99.90
13433;DHT22;6789;47.678;9.158;2022-07-04T23:05:12;18.00;99.90
13433;DHT22;6789;47.678;9.158;2022-07-04T23:23:20;17.90;99.90
13433;DHT22;6789;47.678;9.158;2022-07-04T23:28:54;17.90;99.90
13433;DHT22;6789;47.678;9.158;2022-07-04T23:34:01;18.00;99.90
13433;DHT22;6789;47.678;9.158;2022-07-04T23:39:19;18.00;99.90
13433;DHT22;6789;47.678;9.158;2022-07-04T23:44:29;18.10;99.90
13433;DHT22;6789;47.678;9.158;2022-07-04T23:49:35;18.10;99.90
13433;DHT22;6789;47.678;9.158;2022-07-04T23:54:47;18.10;99.90
13433;DHT22;6789;47.678;9.158;2022-07-04T23:59:52;18.20;99.90
